createdAt,value
2022-10-25T00:01:35.506Z,99.07
2022-10-25T00:04:03.078Z,99.48
2022-10-25T00:06:30.121Z,99.23
2022-10-25T00:08:57.088Z,99.71
2022-10-25T00:11:29.975Z,99.39
2022-10-25T00:14:00.425Z,99.69
2022-10-25T00:16:32.246Z,99.43
2022-10-25T00:18:59.266Z,99.38
2022-10-25T00:21:26.394Z,99.60
2022-10-25T00:23:53.933Z,99.40
2022-10-25T00:26:21.880Z,99.15
2022-10-25T00:28:49.275Z,99.13
2022-10-25T00:31:17.671Z,99.40
2022-10-25T00:33:45.817Z,99.32
2022-10-25T00:36:27.148Z,99.08
2022-10-25T00:38:57.871Z,99.06
2022-10-25T00:41:29.830Z,99.46
2022-10-25T00:44:36.661Z,99.24
2022-10-25T00:47:32.899Z,99.46
2022-10-25T00:50:16.965Z,99.32
2022-10-25T00:52:47.315Z,99.57
2022-10-25T00:55:18.982Z,99.26
2022-10-25T00:58:03.536Z,99.12
2022-10-25T01:00:30.618Z,99.18
2022-10-25T01:02:58.067Z,99.50
2022-10-25T01:05:25.057Z,99.76
2022-10-25T01:07:52.115Z,99.18
2022-10-25T01:10:19.174Z,99.16
2022-10-25T01:12:48.585Z,99.37
2022-10-25T01:15:18.418Z,99.43
2022-10-25T01:18:08.486Z,99.53
2022-10-25T01:20:56.133Z,99.57
2022-10-25T01:24:22.483Z,99.57
2022-10-25T01:27:36.325Z,99.78
2022-10-25T01:30:30.747Z,99.84
2022-10-25T01:33:33.232Z,99.78
2022-10-25T01:36:30.310Z,99.99
2022-10-25T01:39:20.497Z,100.00
2022-10-25T01:42:11.712Z,99.81
2022-10-25T01:44:57.022Z,99.99
2022-10-25T01:47:48.893Z,99.84
2022-10-25T01:50:29.768Z,99.63
2022-10-25T01:52:56.875Z,100.00
2022-10-25T01:55:45.569Z,99.79
2022-10-25T01:58:45.061Z,100.00
2022-10-25T02:01:50.217Z,100.00
2022-10-25T02:04:37.154Z,99.48
2022-10-25T02:07:11.139Z,99.65
2022-10-25T02:09:48.163Z,99.68
2022-10-25T02:12:25.478Z,99.66
2022-10-25T02:15:09.814Z,99.61
2022-10-25T02:17:46.931Z,99.42
2022-10-25T02:20:18.940Z,99.89
2022-10-25T02:22:46.803Z,99.85
2022-10-25T02:25:14.976Z,99.62
2022-10-25T02:27:44.654Z,99.46
2022-10-25T02:30:12.755Z,99.60
2022-10-25T02:32:40.032Z,99.15
2022-10-25T02:35:18.288Z,98.81
2022-10-25T02:37:45.947Z,98.86
2022-10-25T02:40:13.722Z,98.96
2022-10-25T02:42:40.803Z,98.98
2022-10-25T02:45:08.640Z,99.19
2022-10-25T02:47:35.685Z,98.99
2022-10-25T02:50:03.775Z,99.11
2022-10-25T02:52:31.355Z,99.61
2022-10-25T02:54:58.487Z,99.13
2022-10-25T02:57:25.546Z,99.19
2022-10-25T02:59:52.482Z,98.94
2022-10-25T03:02:19.442Z,99.34
2022-10-25T03:04:46.394Z,99.38
2022-10-25T03:07:13.477Z,99.01
2022-10-25T03:09:40.511Z,98.92
2022-10-25T03:12:07.541Z,99.16
2022-10-25T03:14:34.575Z,99.35
2022-10-25T03:17:01.517Z,99.60
2022-10-25T03:19:28.441Z,99.42
2022-10-25T03:21:55.507Z,99.34
2022-10-25T03:24:22.490Z,99.50
2022-10-25T03:26:49.410Z,99.31
2022-10-25T03:29:16.388Z,99.17
2022-10-25T03:31:43.343Z,99.15
2022-10-25T03:34:10.383Z,99.21
2022-10-25T03:36:37.402Z,99.15
2022-10-25T03:39:04.409Z,99.63
2022-10-25T03:41:31.352Z,99.25
2022-10-25T03:43:58.329Z,99.35
2022-10-25T03:46:25.401Z,99.65
2022-10-25T03:48:52.387Z,99.49
2022-10-25T03:51:19.341Z,99.39
2022-10-25T03:53:46.915Z,99.98
2022-10-25T03:56:13.869Z,99.62
2022-10-25T03:58:40.802Z,99.87
2022-10-25T04:01:11.101Z,99.85
2022-10-25T04:03:38.229Z,99.95
2022-10-25T04:06:05.398Z,99.68
2022-10-25T04:08:32.342Z,99.84
2022-10-25T04:10:59.351Z,100.00
2022-10-25T04:13:26.320Z,100.00
2022-10-25T04:15:53.355Z,99.89
2022-10-25T04:18:20.409Z,100.00
2022-10-25T04:20:47.415Z,100.00
2022-10-25T04:23:14.419Z,100.00
2022-10-25T04:25:41.498Z,99.93
2022-10-25T04:28:08.450Z,100.00
2022-10-25T04:30:38.094Z,100.00
2022-10-25T04:33:06.041Z,99.91
2022-10-25T04:35:33.139Z,100.00
2022-10-25T04:38:02.231Z,100.00
2022-10-25T04:40:29.267Z,100.00
2022-10-25T04:43:02.314Z,100.00
2022-10-25T04:45:30.205Z,100.00
2022-10-25T04:47:57.291Z,100.00
2022-10-25T04:50:24.336Z,100.00
2022-10-25T04:52:51.268Z,100.00
2022-10-25T04:55:18.210Z,100.00
2022-10-25T04:57:45.142Z,100.00
2022-10-25T05:00:12.792Z,100.00
2022-10-25T05:02:39.873Z,100.00
2022-10-25T05:05:07.332Z,100.00
2022-10-25T05:07:34.291Z,100.00
2022-10-25T05:10:01.283Z,100.00
2022-10-25T05:12:28.255Z,100.00
2022-10-25T05:14:55.293Z,100.00
2022-10-25T05:17:22.312Z,100.00
2022-10-25T05:19:49.248Z,100.00
2022-10-25T05:22:16.205Z,100.00
2022-10-25T05:24:43.338Z,100.00
2022-10-25T05:27:10.283Z,100.00
2022-10-25T05:29:37.474Z,100.00
2022-10-25T05:32:04.618Z,100.00
2022-10-25T05:34:31.667Z,100.00
2022-10-25T05:36:58.837Z,100.00
2022-10-25T05:39:25.948Z,100.00
2022-10-25T05:41:53.216Z,100.00
2022-10-25T05:44:20.146Z,100.00
2022-10-25T05:46:47.111Z,100.00
2022-10-25T05:49:14.416Z,98.94
2022-10-25T05:51:41.364Z,94.92
2022-10-25T05:54:13.204Z,91.34
2022-10-25T05:56:41.413Z,88.43
2022-10-25T05:59:11.671Z,86.82
2022-10-25T06:01:42.944Z,85.60
2022-10-25T06:04:10.609Z,85.08
2022-10-25T06:06:39.744Z,84.71
2022-10-25T06:09:07.319Z,84.45
2022-10-25T06:11:34.734Z,84.61
2022-10-25T06:14:01.973Z,84.54
2022-10-25T06:16:29.079Z,84.28
2022-10-25T06:18:56.072Z,84.36
2022-10-25T06:21:27.045Z,84.33
2022-10-25T06:23:55.465Z,84.56
2022-10-25T06:26:26.110Z,84.55
2022-10-25T06:28:57.966Z,84.01
2022-10-25T06:31:25.495Z,84.16
2022-10-25T06:33:52.869Z,84.54
2022-10-25T06:36:22.862Z,84.62
2022-10-25T06:38:50.539Z,84.57
2022-10-25T06:41:21.410Z,84.63
2022-10-25T06:43:49.283Z,84.28
2022-10-25T06:46:33.205Z,84.17
2022-10-25T06:49:01.982Z,84.39
2022-10-25T06:51:29.603Z,83.92
2022-10-25T06:53:57.915Z,84.39
2022-10-25T06:56:26.482Z,83.89
2022-10-25T06:58:54.240Z,83.56
2022-10-25T07:01:23.505Z,83.46
2022-10-25T07:03:51.155Z,83.27
2022-10-25T07:06:25.994Z,82.73
2022-10-25T07:08:56.725Z,82.71
2022-10-25T07:11:26.113Z,82.49
2022-10-25T07:13:53.096Z,82.56
2022-10-25T07:16:21.401Z,82.76
2022-10-25T07:18:48.995Z,82.83
2022-10-25T07:21:21.973Z,82.37
2022-10-25T07:23:50.796Z,81.97
2022-10-25T07:26:31.074Z,82.44
2022-10-25T07:29:00.301Z,82.53
2022-10-25T07:31:34.658Z,82.21
2022-10-25T07:34:04.121Z,81.80
2022-10-25T07:36:31.495Z,81.60
2022-10-25T07:38:58.713Z,81.56
2022-10-25T07:41:26.602Z,81.46
2022-10-25T07:43:53.656Z,81.16
2022-10-25T07:46:20.973Z,81.36
2022-10-25T07:48:47.970Z,80.77
2022-10-25T07:51:17.289Z,80.78
2022-10-25T07:53:44.392Z,80.65
2022-10-25T07:56:20.757Z,80.33
2022-10-25T07:58:54.159Z,79.99
2022-10-25T08:01:27.083Z,79.72
2022-10-25T08:03:55.847Z,79.12
2022-10-25T08:06:25.236Z,79.36
2022-10-25T08:08:52.689Z,79.34
2022-10-25T08:11:20.244Z,79.19
2022-10-25T08:13:50.478Z,78.96
2022-10-25T08:16:18.217Z,79.27
2022-10-25T08:18:45.613Z,78.99
2022-10-25T08:21:12.679Z,79.04
2022-10-25T08:23:39.677Z,79.16
2022-10-25T08:26:07.114Z,78.83
2022-10-25T08:28:34.361Z,79.19
2022-10-25T08:31:01.846Z,79.19
2022-10-25T08:33:30.087Z,78.85
2022-10-25T08:36:01.657Z,79.11
2022-10-25T08:38:29.320Z,78.81
2022-10-25T08:41:38.560Z,79.10
2022-10-25T08:44:24.038Z,78.88
2022-10-25T08:47:42.700Z,78.41
2022-10-25T08:50:35.721Z,78.13
2022-10-25T08:53:08.977Z,78.17
2022-10-25T08:55:41.672Z,78.33
2022-10-25T08:58:48.973Z,78.13
2022-10-25T09:01:26.793Z,78.19
2022-10-25T09:03:54.300Z,77.86
2022-10-25T09:06:54.526Z,77.86
2022-10-25T09:09:42.535Z,77.01
2022-10-25T09:12:33.143Z,77.43
2022-10-25T09:15:11.541Z,77.29
2022-10-25T09:17:51.201Z,77.15
2022-10-25T09:20:30.533Z,77.29
2022-10-25T09:23:24.815Z,77.41
2022-10-25T09:26:16.067Z,77.17
2022-10-25T09:28:55.336Z,77.04
2022-10-25T09:31:25.935Z,77.13
2022-10-25T09:34:05.556Z,77.28
2022-10-25T09:37:18.271Z,77.15
2022-10-25T09:39:52.154Z,77.10
2022-10-25T09:42:36.142Z,76.90
2022-10-25T09:45:33.007Z,77.52
2022-10-25T09:48:17.143Z,77.42
2022-10-25T09:51:04.083Z,77.32
2022-10-25T09:53:33.278Z,76.95
2022-10-25T09:56:04.603Z,76.64
2022-10-25T09:58:42.695Z,76.80
2022-10-25T10:01:25.895Z,76.33
2022-10-25T10:04:06.296Z,76.23
2022-10-25T10:06:37.907Z,76.49
2022-10-25T10:09:07.729Z,76.54
2022-10-25T10:11:36.464Z,76.73
2022-10-25T10:14:22.715Z,76.61
2022-10-25T10:16:54.971Z,76.63
2022-10-25T10:19:30.244Z,76.29
2022-10-25T10:22:12.823Z,76.21
2022-10-25T10:24:43.890Z,75.93
2022-10-25T10:27:32.627Z,76.39
2022-10-25T10:30:07.906Z,76.68
2022-10-25T10:35:31.473Z,76.71
2022-10-25T10:38:28.654Z,76.75
2022-10-25T10:41:25.958Z,76.71
2022-10-25T10:44:14.567Z,76.48
2022-10-25T10:46:46.491Z,76.24
2022-10-25T10:49:14.973Z,76.41
2022-10-25T10:51:45.741Z,76.20
2022-10-25T10:54:38.447Z,76.09
2022-10-25T10:57:07.199Z,75.83
2022-10-25T10:59:45.791Z,76.24
2022-10-25T11:02:40.974Z,76.18
2022-10-25T11:05:28.182Z,76.06
2022-10-25T11:08:01.670Z,76.05
2022-10-25T11:10:33.911Z,76.39
2022-10-25T11:13:19.213Z,76.24
2022-10-25T11:16:23.096Z,75.75
2022-10-25T11:19:04.145Z,75.82
2022-10-25T11:21:52.316Z,76.48
2022-10-25T11:25:02.886Z,76.70
2022-10-25T11:28:23.553Z,76.03
2022-10-25T11:31:23.925Z,75.81
2022-10-25T11:34:24.857Z,75.76
2022-10-25T11:37:18.808Z,75.60
2022-10-25T11:40:20.969Z,75.10
2022-10-25T11:43:44.256Z,75.34
2022-10-25T11:46:32.519Z,75.98
2022-10-25T11:49:02.082Z,76.00
2022-10-25T11:52:11.175Z,75.59
2022-10-25T11:54:55.927Z,75.66
2022-10-25T11:57:38.930Z,75.64
2022-10-25T12:00:22.968Z,75.45
2022-10-25T12:03:14.059Z,75.60
2022-10-25T12:06:04.010Z,75.61
2022-10-25T12:08:59.700Z,75.52
2022-10-25T12:11:37.841Z,75.40
2022-10-25T12:14:10.895Z,75.70
2022-10-25T12:16:40.374Z,76.03
2022-10-25T12:19:27.101Z,76.15
2022-10-25T12:22:01.899Z,76.12
2022-10-25T12:24:43.991Z,75.99
2022-10-25T12:27:13.300Z,75.78
2022-10-25T12:29:46.188Z,76.10
2022-10-25T12:32:32.559Z,75.69
2022-10-25T12:35:05.773Z,75.52
2022-10-25T12:37:41.166Z,75.50
2022-10-25T12:40:20.572Z,75.25
2022-10-25T12:43:05.756Z,75.29
2022-10-25T12:46:02.477Z,74.89
2022-10-25T12:48:59.334Z,75.59
2022-10-25T12:52:18.389Z,75.82
2022-10-25T12:54:59.218Z,75.99
2022-10-25T12:57:55.166Z,75.56
2022-10-25T13:00:24.166Z,75.63
2022-10-25T13:03:19.672Z,75.47
2022-10-25T13:06:04.732Z,74.88
2022-10-25T13:08:32.764Z,74.76
2022-10-25T13:11:07.972Z,74.92
2022-10-25T13:13:40.177Z,74.70
2022-10-25T13:16:10.863Z,75.10
2022-10-25T13:19:09.212Z,74.90
2022-10-25T13:21:54.475Z,75.13
2022-10-25T13:25:01.666Z,75.32
2022-10-25T13:27:32.663Z,75.21
2022-10-25T13:30:08.271Z,75.08
2022-10-25T13:32:43.601Z,74.67
2022-10-25T13:35:22.854Z,74.88
2022-10-25T13:38:05.920Z,74.73
2022-10-25T13:40:33.389Z,75.08
2022-10-25T13:43:05.992Z,74.87
2022-10-25T13:45:45.922Z,74.99
2022-10-25T13:48:34.064Z,75.06
2022-10-25T13:51:14.710Z,74.81
2022-10-25T13:53:47.473Z,74.66
2022-10-25T13:56:17.399Z,74.45
2022-10-25T13:58:56.590Z,74.25
2022-10-25T14:01:25.051Z,74.27
2022-10-25T14:03:54.355Z,74.20
2022-10-25T14:06:32.373Z,74.34
2022-10-25T14:09:36.404Z,74.69
2022-10-25T14:12:06.527Z,74.32
2022-10-25T14:14:47.742Z,74.33
2022-10-25T14:17:39.082Z,74.34
2022-10-25T14:20:22.570Z,73.87
2022-10-25T14:23:03.981Z,74.01
2022-10-25T14:25:40.469Z,73.98
2022-10-25T14:28:10.310Z,73.96
2022-10-25T14:30:47.833Z,73.97
2022-10-25T14:33:45.776Z,74.16
2022-10-25T14:36:34.199Z,73.95
2022-10-25T14:39:23.008Z,73.95
2022-10-25T14:41:53.724Z,74.05
2022-10-25T14:44:43.785Z,74.09
2022-10-25T14:47:28.428Z,74.22
2022-10-25T14:49:57.422Z,74.18
2022-10-25T14:52:30.202Z,74.08
2022-10-25T14:55:03.083Z,74.06
2022-10-25T14:57:31.509Z,74.17
2022-10-25T15:00:02.721Z,73.94
2022-10-25T15:02:40.420Z,76.30
2022-10-25T15:05:17.330Z,77.47
2022-10-25T15:07:47.104Z,78.02
2022-10-25T15:10:41.532Z,78.24
2022-10-25T15:13:22.720Z,79.22
2022-10-25T15:15:51.502Z,79.57
2022-10-25T15:18:32.238Z,80.54
2022-10-25T15:21:03.342Z,80.45
2022-10-25T15:23:31.107Z,80.24
2022-10-25T15:25:58.155Z,80.10
2022-10-25T15:28:25.470Z,80.07
2022-10-25T15:31:02.420Z,80.40
2022-10-25T15:33:32.517Z,80.11
2022-10-25T15:36:03.536Z,79.79
2022-10-25T15:38:54.212Z,80.39
2022-10-25T15:41:21.705Z,80.31
2022-10-25T15:43:48.849Z,80.86
2022-10-25T15:46:31.371Z,80.68
2022-10-25T15:49:02.123Z,80.76
2022-10-25T15:51:32.206Z,80.85
2022-10-25T15:53:59.192Z,81.19
2022-10-25T15:56:26.351Z,81.17
2022-10-25T15:58:53.394Z,81.48
2022-10-25T16:01:21.425Z,82.10
2022-10-25T16:03:49.766Z,82.35
2022-10-25T16:06:17.906Z,82.49
2022-10-25T16:08:45.677Z,82.98
2022-10-25T16:11:17.375Z,83.23
2022-10-25T16:13:46.807Z,83.34
2022-10-25T16:16:46.614Z,83.48
2022-10-25T16:19:18.386Z,84.30
2022-10-25T16:21:45.984Z,84.04
2022-10-25T16:24:13.799Z,84.22
2022-10-25T16:26:48.566Z,84.53
2022-10-25T16:29:17.645Z,84.99
2022-10-25T16:31:46.124Z,85.14
2022-10-25T16:34:17.201Z,85.35
2022-10-25T16:36:45.899Z,85.43
2022-10-25T16:39:13.685Z,85.54
2022-10-25T16:41:44.814Z,86.04
2022-10-25T16:44:13.910Z,85.49
2022-10-25T16:46:40.858Z,86.00
2022-10-25T16:49:11.363Z,86.07
2022-10-25T16:51:39.960Z,85.96
2022-10-25T16:54:07.884Z,86.10
2022-10-25T16:56:35.807Z,86.37
2022-10-25T16:59:03.381Z,86.49
2022-10-25T17:01:34.762Z,86.85
2022-10-25T17:04:04.771Z,87.12
2022-10-25T17:06:47.212Z,87.05
2022-10-25T17:09:14.402Z,87.14
2022-10-25T17:11:41.586Z,87.25
2022-10-25T17:14:12.650Z,87.54
2022-10-25T17:16:42.592Z,87.75
2022-10-25T17:19:11.458Z,87.78
2022-10-25T17:21:40.113Z,87.73
2022-10-25T17:24:09.317Z,87.94
2022-10-25T17:26:37.270Z,88.06
2022-10-25T17:29:04.733Z,87.81
2022-10-25T17:31:34.545Z,87.96
2022-10-25T17:34:02.475Z,87.92
2022-10-25T17:36:32.266Z,88.24
2022-10-25T17:39:00.481Z,88.03
2022-10-25T17:41:27.587Z,88.12
2022-10-25T17:43:56.785Z,88.29
2022-10-25T17:46:29.362Z,88.19
2022-10-25T17:49:03.670Z,88.04
2022-10-25T17:51:33.018Z,88.18
2022-10-25T17:54:00.181Z,88.17
2022-10-25T17:56:28.258Z,88.05
2022-10-25T17:58:58.341Z,88.12
2022-10-25T18:01:28.117Z,87.82
2022-10-25T18:03:55.420Z,87.79
2022-10-25T18:06:25.859Z,87.73
2022-10-25T18:08:55.870Z,87.94
2022-10-25T18:11:26.044Z,87.94
2022-10-25T18:14:02.071Z,87.96
2022-10-25T18:16:31.200Z,88.03
2022-10-25T18:19:01.745Z,88.42
2022-10-25T18:21:29.316Z,88.31
2022-10-25T18:24:05.137Z,88.39
2022-10-25T18:26:34.812Z,88.46
2022-10-25T18:29:02.347Z,88.40
2022-10-25T18:31:29.435Z,88.00
2022-10-25T18:33:58.908Z,88.38
2022-10-25T18:36:27.697Z,88.65
2022-10-25T18:38:55.588Z,88.32
2022-10-25T18:41:29.962Z,88.45
2022-10-25T18:44:00.843Z,88.44
2022-10-25T18:46:30.825Z,88.81
2022-10-25T18:48:58.559Z,89.20
2022-10-25T18:51:28.997Z,88.93
2022-10-25T18:53:58.374Z,88.92
2022-10-25T18:56:26.970Z,89.09
2022-10-25T18:58:56.897Z,89.05
2022-10-25T19:01:32.786Z,89.25
2022-10-25T19:04:02.791Z,88.93
2022-10-25T19:06:30.799Z,89.01
2022-10-25T19:08:59.897Z,89.13
2022-10-25T19:11:27.139Z,88.88
2022-10-25T19:13:56.071Z,89.20
2022-10-25T19:16:24.209Z,89.05
2022-10-25T19:18:51.784Z,89.46
2022-10-25T19:21:19.672Z,89.12
2022-10-25T19:23:47.584Z,89.46
2022-10-25T19:26:21.155Z,89.26
2022-10-25T19:28:55.520Z,89.17
2022-10-25T19:31:22.792Z,89.34
2022-10-25T19:33:51.665Z,89.36
2022-10-25T19:36:20.477Z,89.49
2022-10-25T19:38:50.654Z,89.75
2022-10-25T19:41:22.890Z,89.82
2022-10-25T19:43:50.834Z,89.84
2022-10-25T19:46:18.749Z,90.05
2022-10-25T19:48:46.389Z,90.27
2022-10-25T19:51:17.888Z,89.90
2022-10-25T19:53:45.644Z,89.96
2022-10-25T19:56:21.651Z,89.75
2022-10-25T19:58:49.529Z,90.33
2022-10-25T20:01:25.270Z,90.21
2022-10-25T20:04:03.789Z,89.87
2022-10-25T20:06:35.079Z,89.94
2022-10-25T20:09:02.764Z,89.72
2022-10-25T20:11:31.527Z,90.13
2022-10-25T20:14:02.108Z,90.36
2022-10-25T20:16:30.555Z,90.17
2022-10-25T20:19:01.103Z,90.59
2022-10-25T20:21:37.389Z,90.73
2022-10-25T20:24:07.961Z,90.35
2022-10-25T20:26:38.912Z,90.36
2022-10-25T20:29:17.021Z,90.88
2022-10-25T20:31:47.381Z,90.53
2022-10-25T20:34:14.403Z,90.86
2022-10-25T20:36:41.359Z,90.79
2022-10-25T20:39:08.307Z,90.55
2022-10-25T20:41:36.195Z,90.88
2022-10-25T20:44:04.555Z,90.83
2022-10-25T20:46:33.413Z,90.91
2022-10-25T20:49:02.145Z,91.02
2022-10-25T20:51:29.308Z,91.08
2022-10-25T20:53:57.049Z,90.81
2022-10-25T20:56:24.481Z,91.02
2022-10-25T20:58:51.762Z,90.93
2022-10-25T21:01:19.327Z,91.13
2022-10-25T21:03:46.327Z,91.03
2022-10-25T21:06:14.448Z,90.69
2022-10-25T21:08:41.688Z,90.81
2022-10-25T21:11:12.569Z,90.86
2022-10-25T21:13:40.077Z,91.31
2022-10-25T21:16:15.924Z,90.90
2022-10-25T21:18:44.149Z,91.02
2022-10-25T21:21:20.196Z,90.86
2022-10-25T21:23:48.389Z,90.89
2022-10-25T21:26:16.087Z,90.95
2022-10-25T21:28:43.082Z,91.23
2022-10-25T21:31:13.750Z,90.74
2022-10-25T21:33:49.661Z,91.11
2022-10-25T21:36:19.118Z,91.39
2022-10-25T21:38:46.353Z,91.08
2022-10-25T21:41:17.749Z,91.79
2022-10-25T21:43:49.946Z,91.32
2022-10-25T21:46:19.711Z,91.42
2022-10-25T21:48:48.039Z,91.36
2022-10-25T21:51:15.515Z,91.31
2022-10-25T21:53:42.693Z,91.54
2022-10-25T21:56:19.355Z,91.38
2022-10-25T21:58:49.899Z,91.53
2022-10-25T22:01:23.919Z,91.46
2022-10-25T22:03:52.318Z,91.76
2022-10-25T22:06:22.339Z,92.01
2022-10-25T22:08:49.816Z,92.03
2022-10-25T22:11:20.871Z,92.10
2022-10-25T22:13:48.583Z,92.10
2022-10-25T22:16:19.727Z,91.86
2022-10-25T22:18:54.338Z,92.06
2022-10-25T22:21:21.965Z,92.23
2022-10-25T22:23:49.806Z,92.34
2022-10-25T22:26:20.019Z,92.40
2022-10-25T22:28:52.150Z,92.54
2022-10-25T22:31:20.341Z,92.52
2022-10-25T22:33:47.736Z,92.61
2022-10-25T22:36:17.966Z,92.86
2022-10-25T22:38:46.156Z,93.04
2022-10-25T22:41:22.676Z,93.20
2022-10-25T22:43:50.075Z,93.25
2022-10-25T22:46:25.280Z,93.23
2022-10-25T22:48:54.867Z,93.53
2022-10-25T22:51:23.700Z,93.61
2022-10-25T22:53:50.934Z,93.22
2022-10-25T22:56:27.526Z,93.45
2022-10-25T22:58:57.868Z,93.31
2022-10-25T23:01:31.703Z,93.53
2022-10-25T23:04:00.154Z,93.68
2022-10-25T23:06:33.886Z,93.67
2022-10-25T23:09:03.795Z,93.73
2022-10-25T23:11:33.782Z,93.80
2022-10-25T23:14:01.652Z,94.02
2022-10-25T23:16:29.744Z,93.70
2022-10-25T23:18:57.503Z,93.58
2022-10-25T23:21:27.876Z,93.87
2022-10-25T23:23:57.159Z,93.93
2022-10-25T23:26:29.637Z,93.55
2022-10-25T23:28:56.688Z,93.76
2022-10-25T23:31:24.984Z,93.55
2022-10-25T23:33:57.512Z,93.43
2022-10-25T23:36:27.946Z,93.38
2022-10-25T23:38:56.038Z,93.60
2022-10-25T23:41:23.154Z,93.44
2022-10-25T23:43:50.611Z,93.57
2022-10-25T23:46:17.957Z,93.59
2022-10-25T23:48:44.975Z,93.63
2022-10-25T23:51:15.773Z,93.57
2022-10-25T23:53:43.316Z,93.69
2022-10-25T23:56:12.567Z,93.69
2022-10-25T23:58:39.701Z,93.55
